»·PEaware :: QXE2674 KRDD-KMRY

QXE2674 :: KRDD-KMRY

FLIGHT INFORMATION

Flight Status: Arrived
Operator:
Horizon Air
More flights by this operator :: More flights under this callsign
Pilot: Walter H. (552)
Aircraft: Unknown
(DHC8)
More flights by this aircraft type
Origin: KRDD Redding Mun
United States
Destination: KMRY Monterey Peninsula
United States
More flights between these airports :: More routes between these airports
Route: RBL V25 STINS V27 SAGUE
File this flight plan on PilotEdge
Remarks:
Altitude:
(Current/Filed)
21,000ft
Speed:
(Current/Filed)
180kts
Departed: 14-Jul-18 08:55 AM
Arrived: 14-Jul-18 09:56 AM
Distance/Time
Traveled:
236nm/1:01
Distance/Time
To Go:
Arrived

Flight Plot

Page will automatically refresh every two minutes.

Flight plan parsing failed; only flown route is shown


Map Options




Map Legend


Flown Route
Filed Route
Departure Airport
Arrival Airport
Navaid (VOR, NDB)
Fix

Horizontal Profiles

Position Reports

Time Latitude Longitude Heading Altitude Ground
Speed
14-Jul-18 08:55 40.530810 -122.241436 179 12515ft 179kts
14-Jul-18 08:56 40.481014 -122.240649 180 14010ft 173kts
14-Jul-18 08:57 40.432298 -122.239950 180 15236ft 168kts
14-Jul-18 08:58 40.384384 -122.239321 181 16132ft 166kts
14-Jul-18 08:59 40.333175 -122.238771 181 16948ft 187kts
14-Jul-18 09:00 40.279805 -122.238053 181 18126ft 191kts
14-Jul-18 09:01 40.225282 -122.237426 181 19281ft 195kts
14-Jul-18 09:02 40.169777 -122.236852 182 20423ft 198kts
14-Jul-18 09:03 40.110875 -122.236538 184 21005ft 235kts
14-Jul-18 09:04 40.043058 -122.266889 205 21013ft 280kts
14-Jul-18 09:05 39.967489 -122.308178 204 21011ft 307kts
14-Jul-18 09:06 39.887078 -122.351790 204 21013ft 320kts
14-Jul-18 09:07 39.803997 -122.396730 204 21014ft 327kts
14-Jul-18 09:08 39.719787 -122.442383 204 21024ft 330kts
14-Jul-18 09:09 39.634969 -122.488190 203 21027ft 332kts
14-Jul-18 09:10 39.549661 -122.534019 203 21030ft 333kts
14-Jul-18 09:11 39.464183 -122.579863 203 21028ft 333kts
14-Jul-18 09:12 39.378909 -122.625438 203 21030ft 332kts
14-Jul-18 09:13 39.293848 -122.670804 203 21043ft 332kts
14-Jul-18 09:14 39.208530 -122.716186 203 21047ft 332kts
14-Jul-18 09:15 39.123429 -122.761309 203 21047ft 332kts
14-Jul-18 09:16 39.038193 -122.806426 203 21049ft 332kts
14-Jul-18 09:17 38.952975 -122.851468 203 21047ft 332kts
14-Jul-18 09:18 38.867631 -122.896329 203 21053ft 332kts
14-Jul-18 09:19 38.782208 -122.941214 203 21052ft 332kts
14-Jul-18 09:20 38.695486 -122.979539 184 21055ft 334kts
14-Jul-18 09:21 38.603020 -122.965064 173 21059ft 337kts
14-Jul-18 09:22 38.510858 -122.947573 173 21062ft 337kts
14-Jul-18 09:23 38.418529 -122.930454 173 21118ft 336kts
14-Jul-18 09:24 38.341577 -122.916197 173 21122ft 336kts
14-Jul-18 09:25 38.249258 -122.899135 173 21126ft 337kts
14-Jul-18 09:26 38.157053 -122.882090 173 21123ft 337kts
14-Jul-18 09:27 38.064985 -122.862635 165 21130ft 339kts
14-Jul-18 09:28 37.976220 -122.822768 162 21125ft 339kts
14-Jul-18 09:29 37.888888 -122.784907 162 21126ft 339kts
14-Jul-18 09:30 37.788411 -122.741448 163 21133ft 338kts
14-Jul-18 09:31 37.715611 -122.710069 163 21140ft 338kts
14-Jul-18 09:32 37.627858 -122.672262 163 21150ft 338kts
14-Jul-18 09:33 37.539853 -122.634344 163 21158ft 338kts
14-Jul-18 09:34 37.452658 -122.597106 163 21154ft 339kts
14-Jul-18 09:35 37.363927 -122.559194 163 21039ft 342kts
14-Jul-18 09:36 37.276358 -122.521928 163 20172ft 337kts
14-Jul-18 09:37 37.188721 -122.484730 162 19180ft 333kts
14-Jul-18 09:38 37.101903 -122.447687 160 18184ft 331kts
14-Jul-18 09:39 37.026505 -122.385070 144 17186ft 331kts
14-Jul-18 09:40 36.951414 -122.317805 145 15688ft 333kts
14-Jul-18 09:41 36.876943 -122.251832 145 14203ft 329kts
14-Jul-18 09:42 36.803593 -122.186874 145 12713ft 322kts
14-Jul-18 09:43 36.725197 -122.152209 200 11221ft 312kts
14-Jul-18 09:44 36.684565 -122.235729 254 9735ft 281kts
14-Jul-18 09:45 36.707783 -122.319351 315 8197ft 268kts
14-Jul-18 09:46 36.767372 -122.346989 31 6416ft 248kts
14-Jul-18 09:47 36.786570 -122.280526 112 4618ft 220kts
14-Jul-18 09:48 36.759269 -122.214210 134 2892ft 214kts
14-Jul-18 09:49 36.721673 -122.166599 135 2637ft 175kts
14-Jul-18 09:50 36.690409 -122.121498 124 2627ft 170kts
14-Jul-18 09:51 36.666724 -122.072324 116 2628ft 163kts
14-Jul-18 09:52 36.647292 -122.021480 112 2634ft 164kts
14-Jul-18 09:53 36.629998 -121.971122 111 2099ft 141kts
14-Jul-18 09:54 36.615596 -121.928162 112 1443ft 127kts
14-Jul-18 09:55 36.601130 -121.885990 113 724ft 142kts
14-Jul-18 09:56 36.586887 -121.844081 112 213ft 69kts
14-Jul-18 09:57 36.585252 -121.841427 218 212ft 0kts
14-Jul-18 09:58 36.585522 -121.842864 292 212ft 16kts
14-Jul-18 09:59 36.587822 -121.849270 289 212ft 10kts
14-Jul-18 10:00 36.587655 -121.849893 239 212ft 0kts
14-Jul-18 10:01 36.587655 -121.849893 239 212ft 0kts
14-Jul-18 10:02 36.587655 -121.849893 239 212ft 0kts

Navigation Log

Ident Type
Flight plan parsing failed, navigation log unavailable